sensor_id;sensor_type;location;lat;lon;timestamp;P1;durP1;ratioP1;P2;durP2;ratioP2
1523;SDS011;755;53.658;10.118;2023-04-03T00:02:27;10.02;;;1.52;;
1523;SDS011;755;53.658;10.118;2023-04-03T00:12:31;4.70;;;1.40;;
1523;SDS011;755;53.658;10.118;2023-04-03T00:22:33;5.57;;;1.67;;
1523;SDS011;755;53.658;10.118;2023-04-03T00:32:36;4.78;;;1.63;;
1523;SDS011;755;53.658;10.118;2023-04-03T00:42:39;17.95;;;2.35;;
1523;SDS011;755;53.658;10.118;2023-04-03T00:52:44;6.22;;;1.90;;
1523;SDS011;755;53.658;10.118;2023-04-03T01:02:49;8.00;;;2.40;;
1523;SDS011;755;53.658;10.118;2023-04-03T01:12:53;8.55;;;1.60;;
1523;SDS011;755;53.658;10.118;2023-04-03T01:22:56;11.95;;;1.90;;
1523;SDS011;755;53.658;10.118;2023-04-03T02:17:28;6.10;;;1.63;;
1523;SDS011;755;53.658;10.118;2023-04-03T02:27:30;13.50;;;2.47;;
1523;SDS011;755;53.658;10.118;2023-04-03T02:59:45;8.93;;;2.15;;
1523;SDS011;755;53.658;10.118;2023-04-03T03:21:35;5.53;;;1.33;;
1523;SDS011;755;53.658;10.118;2023-04-03T03:42:33;8.82;;;1.80;;
1523;SDS011;755;53.658;10.118;2023-04-03T03:53:09;7.28;;;1.90;;
1523;SDS011;755;53.658;10.118;2023-04-03T04:03:59;8.57;;;1.80;;
1523;SDS011;755;53.658;10.118;2023-04-03T04:14:25;14.05;;;1.75;;
1523;SDS011;755;53.658;10.118;2023-04-03T04:25:01;9.27;;;1.92;;
1523;SDS011;755;53.658;10.118;2023-04-03T04:36:00;13.30;;;1.63;;
1523;SDS011;755;53.658;10.118;2023-04-03T04:47:01;4.63;;;1.40;;
1523;SDS011;755;53.658;10.118;2023-04-03T04:57:32;5.15;;;1.98;;
1523;SDS011;755;53.658;10.118;2023-04-03T05:08:41;8.85;;;1.90;;
1523;SDS011;755;53.658;10.118;2023-04-03T05:19:39;3.05;;;1.98;;
1523;SDS011;755;53.658;10.118;2023-04-03T05:29:41;7.05;;;2.08;;
1523;SDS011;755;53.658;10.118;2023-04-03T05:39:45;5.10;;;2.05;;
1523;SDS011;755;53.658;10.118;2023-04-03T05:49:47;7.07;;;2.40;;
1523;SDS011;755;53.658;10.118;2023-04-03T05:59:50;6.45;;;2.17;;
1523;SDS011;755;53.658;10.118;2023-04-03T06:09:52;11.95;;;3.33;;
1523;SDS011;755;53.658;10.118;2023-04-03T06:19:55;12.20;;;2.67;;
1523;SDS011;755;53.658;10.118;2023-04-03T06:29:58;14.57;;;3.20;;
1523;SDS011;755;53.658;10.118;2023-04-03T06:40:01;8.02;;;2.72;;
1523;SDS011;755;53.658;10.118;2023-04-03T06:50:05;9.38;;;2.72;;
1523;SDS011;755;53.658;10.118;2023-04-03T07:00:11;9.40;;;2.50;;
1523;SDS011;755;53.658;10.118;2023-04-03T07:10:13;19.13;;;2.33;;
1523;SDS011;755;53.658;10.118;2023-04-03T07:20:17;6.25;;;1.95;;
1523;SDS011;755;53.658;10.118;2023-04-03T07:30:19;6.55;;;2.50;;
1523;SDS011;755;53.658;10.118;2023-04-03T07:40:22;9.32;;;2.05;;
1523;SDS011;755;53.658;10.118;2023-04-03T07:50:24;4.32;;;1.20;;
1523;SDS011;755;53.658;10.118;2023-04-03T08:00:27;5.93;;;1.02;;
1523;SDS011;755;53.658;10.118;2023-04-03T08:10:29;5.32;;;0.88;;
1523;SDS011;755;53.658;10.118;2023-04-03T08:20:33;8.10;;;1.48;;
1523;SDS011;755;53.658;10.118;2023-04-03T08:30:34;7.13;;;1.77;;
1523;SDS011;755;53.658;10.118;2023-04-03T08:40:39;4.50;;;1.15;;
1523;SDS011;755;53.658;10.118;2023-04-03T08:50:42;5.65;;;0.65;;
1523;SDS011;755;53.658;10.118;2023-04-03T09:00:49;4.07;;;0.93;;
1523;SDS011;755;53.658;10.118;2023-04-03T09:10:58;2.08;;;0.70;;
1523;SDS011;755;53.658;10.118;2023-04-03T09:21:12;3.47;;;0.60;;
1523;SDS011;755;53.658;10.118;2023-04-03T09:31:19;4.35;;;0.65;;
1523;SDS011;755;53.658;10.118;2023-04-03T09:41:24;5.78;;;0.65;;
1523;SDS011;755;53.658;10.118;2023-04-03T09:51:26;4.93;;;0.60;;
1523;SDS011;755;53.658;10.118;2023-04-03T10:01:31;2.20;;;0.40;;
1523;SDS011;755;53.658;10.118;2023-04-03T10:11:35;1.73;;;0.60;;
1523;SDS011;755;53.658;10.118;2023-04-03T10:21:40;3.13;;;0.52;;
1523;SDS011;755;53.658;10.118;2023-04-03T10:31:51;10.10;;;1.10;;
1523;SDS011;755;53.658;10.118;2023-04-03T10:42:03;3.22;;;0.63;;
1523;SDS011;755;53.658;10.118;2023-04-03T10:52:14;5.13;;;1.00;;
1523;SDS011;755;53.658;10.118;2023-04-03T11:02:24;1.45;;;0.90;;
1523;SDS011;755;53.658;10.118;2023-04-03T11:12:39;2.28;;;0.77;;
1523;SDS011;755;53.658;10.118;2023-04-03T11:22:47;4.32;;;1.00;;
1523;SDS011;755;53.658;10.118;2023-04-03T11:32:59;4.82;;;0.50;;
1523;SDS011;755;53.658;10.118;2023-04-03T11:43:22;6.72;;;1.27;;
1523;SDS011;755;53.658;10.118;2023-04-03T11:53:28;18.73;;;4.45;;
1523;SDS011;755;53.658;10.118;2023-04-03T12:14:12;5.38;;;0.75;;
1523;SDS011;755;53.658;10.118;2023-04-03T12:24:24;4.03;;;0.50;;
1523;SDS011;755;53.658;10.118;2023-04-03T12:34:34;8.18;;;0.95;;
1523;SDS011;755;53.658;10.118;2023-04-03T12:44:47;1.02;;;0.32;;
1523;SDS011;755;53.658;10.118;2023-04-03T12:54:59;0.88;;;0.43;;
1523;SDS011;755;53.658;10.118;2023-04-03T13:05:05;6.17;;;0.90;;
1523;SDS011;755;53.658;10.118;2023-04-03T13:15:14;8.82;;;0.85;;
1523;SDS011;755;53.658;10.118;2023-04-03T13:25:18;5.18;;;0.95;;
1523;SDS011;755;53.658;10.118;2023-04-03T13:35:28;3.20;;;0.70;;
1523;SDS011;755;53.658;10.118;2023-04-03T13:45:33;3.53;;;0.85;;
1523;SDS011;755;53.658;10.118;2023-04-03T13:55:51;3.15;;;0.85;;
1523;SDS011;755;53.658;10.118;2023-04-03T14:05:57;1.90;;;0.73;;
1523;SDS011;755;53.658;10.118;2023-04-03T14:16:01;3.67;;;1.13;;
1523;SDS011;755;53.658;10.118;2023-04-03T14:26:04;2.25;;;0.70;;
1523;SDS011;755;53.658;10.118;2023-04-03T14:36:14;2.33;;;1.05;;
1523;SDS011;755;53.658;10.118;2023-04-03T14:46:22;9.68;;;1.02;;
1523;SDS011;755;53.658;10.118;2023-04-03T14:56:29;2.70;;;0.50;;
1523;SDS011;755;53.658;10.118;2023-04-03T15:06:34;3.38;;;0.80;;
1523;SDS011;755;53.658;10.118;2023-04-03T15:16:37;3.88;;;0.98;;
1523;SDS011;755;53.658;10.118;2023-04-03T15:26:40;6.00;;;1.38;;
1523;SDS011;755;53.658;10.118;2023-04-03T15:36:44;3.97;;;1.05;;
1523;SDS011;755;53.658;10.118;2023-04-03T15:46:46;3.22;;;0.82;;
1523;SDS011;755;53.658;10.118;2023-04-03T15:56:52;5.30;;;0.80;;
1523;SDS011;755;53.658;10.118;2023-04-03T16:06:55;5.22;;;0.85;;
1523;SDS011;755;53.658;10.118;2023-04-03T16:16:58;3.13;;;1.27;;
1523;SDS011;755;53.658;10.118;2023-04-03T16:27:01;5.53;;;1.02;;
1523;SDS011;755;53.658;10.118;2023-04-03T16:37:05;8.80;;;1.17;;
1523;SDS011;755;53.658;10.118;2023-04-03T16:47:08;4.85;;;1.08;;
1523;SDS011;755;53.658;10.118;2023-04-03T16:57:12;2.97;;;0.90;;
1523;SDS011;755;53.658;10.118;2023-04-03T17:07:14;4.70;;;1.33;;
1523;SDS011;755;53.658;10.118;2023-04-03T17:17:20;4.40;;;1.20;;
1523;SDS011;755;53.658;10.118;2023-04-03T17:27:25;1.23;;;0.80;;
1523;SDS011;755;53.658;10.118;2023-04-03T17:37:28;4.43;;;1.40;;
1523;SDS011;755;53.658;10.118;2023-04-03T17:47:31;6.30;;;1.00;;
1523;SDS011;755;53.658;10.118;2023-04-03T17:57:34;4.05;;;1.10;;
1523;SDS011;755;53.658;10.118;2023-04-03T18:07:36;6.63;;;0.98;;
1523;SDS011;755;53.658;10.118;2023-04-03T18:17:44;3.10;;;0.83;;
1523;SDS011;755;53.658;10.118;2023-04-03T18:27:49;7.32;;;1.50;;
1523;SDS011;755;53.658;10.118;2023-04-03T18:37:53;6.20;;;1.35;;
1523;SDS011;755;53.658;10.118;2023-04-03T18:47:55;5.82;;;2.28;;
1523;SDS011;755;53.658;10.118;2023-04-03T18:57:59;7.15;;;2.70;;
1523;SDS011;755;53.658;10.118;2023-04-03T19:08:01;16.95;;;4.97;;
1523;SDS011;755;53.658;10.118;2023-04-03T19:18:04;10.02;;;3.67;;
1523;SDS011;755;53.658;10.118;2023-04-03T19:28:06;11.38;;;4.10;;
1523;SDS011;755;53.658;10.118;2023-04-03T19:38:10;9.00;;;3.15;;
1523;SDS011;755;53.658;10.118;2023-04-03T19:48:12;6.30;;;2.58;;
1523;SDS011;755;53.658;10.118;2023-04-03T19:58:15;12.10;;;2.83;;
1523;SDS011;755;53.658;10.118;2023-04-03T20:08:18;6.15;;;2.28;;
1523;SDS011;755;53.658;10.118;2023-04-03T20:18:21;9.10;;;2.88;;
1523;SDS011;755;53.658;10.118;2023-04-03T20:28:23;8.73;;;2.40;;
1523;SDS011;755;53.658;10.118;2023-04-03T20:38:27;8.05;;;2.45;;
1523;SDS011;755;53.658;10.118;2023-04-03T20:48:29;7.20;;;2.03;;
1523;SDS011;755;53.658;10.118;2023-04-03T20:58:33;11.23;;;2.30;;
1523;SDS011;755;53.658;10.118;2023-04-03T21:29:09;4.70;;;2.08;;
1523;SDS011;755;53.658;10.118;2023-04-03T21:39:13;5.97;;;1.58;;
1523;SDS011;755;53.658;10.118;2023-04-03T21:49:15;7.10;;;1.77;;
1523;SDS011;755;53.658;10.118;2023-04-03T21:59:18;14.43;;;2.75;;
1523;SDS011;755;53.658;10.118;2023-04-03T22:09:20;5.00;;;1.58;;
1523;SDS011;755;53.658;10.118;2023-04-03T22:19:23;7.38;;;2.45;;
1523;SDS011;755;53.658;10.118;2023-04-03T22:29:25;22.27;;;3.60;;
1523;SDS011;755;53.658;10.118;2023-04-03T22:39:29;6.57;;;2.50;;
1523;SDS011;755;53.658;10.118;2023-04-03T22:49:34;6.45;;;2.22;;
1523;SDS011;755;53.658;10.118;2023-04-03T22:59:41;6.70;;;2.63;;
1523;SDS011;755;53.658;10.118;2023-04-03T23:09:46;10.27;;;3.15;;
1523;SDS011;755;53.658;10.118;2023-04-03T23:19:50;12.45;;;4.55;;
1523;SDS011;755;53.658;10.118;2023-04-03T23:29:53;15.40;;;3.58;;
1523;SDS011;755;53.658;10.118;2023-04-03T23:50:08;9.10;;;2.88;;
